KCVO - Corvallis, OR
Updated: Sat, 15-Dec-2018 6:56pm PST
Overcast
Overcast
 Wind from calm
Wind: Calm
Temperature: 43°F , 6°C
Dew Point: 39°F , 4°C
Humidity: 87%
Barometer: 29.85 inHg , 1010.8 hPa
Clouds: Overcast
Visibility: 10 miles , 16 km
Cloud details: Few Clouds 7000 ft
Overcast 11000 ft
2018/12/16 02:56 KCVO 160256Z AUTO 00000KT 10SM FEW070 OVC110 06/04 A2985 RMK AO2 SLP110 60000 T00560044 58012